createdAt,value
2023-05-16T00:02:25.357Z,8.43
2023-05-16T00:04:53.998Z,8.38
2023-05-16T00:07:22.278Z,8.43
2023-05-16T00:09:50.716Z,8.41
2023-05-16T00:12:22.696Z,8.34
2023-05-16T00:14:51.542Z,8.32
2023-05-16T00:17:20.522Z,8.39
2023-05-16T00:19:49.259Z,8.23
2023-05-16T00:22:17.709Z,8.21
2023-05-16T00:24:46.341Z,8.15
2023-05-16T00:27:14.978Z,8.19
2023-05-16T00:29:45.313Z,8.11
2023-05-16T00:32:13.983Z,7.99
2023-05-16T00:34:42.339Z,7.99
2023-05-16T00:37:10.964Z,8.04
2023-05-16T00:39:39.210Z,8.08
2023-05-16T00:42:07.765Z,7.96
2023-05-16T00:44:36.027Z,7.87
2023-05-16T00:47:06.112Z,7.82
2023-05-16T00:49:34.868Z,7.70
2023-05-16T00:52:04.061Z,7.62
2023-05-16T00:54:32.702Z,7.42
2023-05-16T00:57:01.268Z,7.33
2023-05-16T00:59:29.658Z,7.37
2023-05-16T01:01:58.093Z,7.32
2023-05-16T01:04:29.351Z,7.27
2023-05-16T01:06:57.884Z,7.20
2023-05-16T01:09:26.254Z,7.23
2023-05-16T01:12:03.235Z,7.16
2023-05-16T01:14:42.592Z,7.15
2023-05-16T01:17:21.775Z,7.16
2023-05-16T01:20:04.925Z,7.12
2023-05-16T01:22:47.759Z,7.01
2023-05-16T01:25:40.333Z,7.02
2023-05-16T01:28:11.285Z,7.04
2023-05-16T01:30:41.774Z,6.94
2023-05-16T01:33:10.512Z,6.88
2023-05-16T01:35:44.874Z,6.93
2023-05-16T01:38:19.727Z,6.87
2023-05-16T01:40:55.207Z,6.86
2023-05-16T01:43:32.391Z,6.99
2023-05-16T01:46:06.412Z,6.85
2023-05-16T01:48:41.054Z,6.80
2023-05-16T01:51:10.536Z,6.71
2023-05-16T01:53:40.040Z,6.60
2023-05-16T01:56:14.520Z,6.58
2023-05-16T01:58:47.948Z,6.53
2023-05-16T02:01:16.337Z,6.48
2023-05-16T02:03:44.656Z,6.42
2023-05-16T02:06:12.936Z,6.31
2023-05-16T02:08:41.217Z,6.31
2023-05-16T02:11:09.663Z,6.35
2023-05-16T02:13:38.230Z,6.26
2023-05-16T02:16:08.384Z,6.30
2023-05-16T02:18:36.885Z,6.40
2023-05-16T02:21:06.829Z,6.46
2023-05-16T02:23:35.052Z,6.57
2023-05-16T02:26:03.500Z,6.49
2023-05-16T02:28:31.893Z,6.46
2023-05-16T02:31:00.756Z,6.43
2023-05-16T02:33:30.667Z,6.42
2023-05-16T02:35:59.305Z,6.34
2023-05-16T02:38:27.740Z,6.25
2023-05-16T02:40:57.396Z,6.16
2023-05-16T02:43:25.738Z,6.16
2023-05-16T02:45:54.013Z,6.02
2023-05-16T02:48:22.342Z,6.02
2023-05-16T02:50:52.218Z,5.97
2023-05-16T02:53:20.586Z,5.90
2023-05-16T02:55:48.858Z,5.93
2023-05-16T02:58:17.246Z,5.97
2023-05-16T03:00:45.703Z,5.93
2023-05-16T03:03:14.015Z,5.89
2023-05-16T03:05:42.650Z,5.91
2023-05-16T03:08:12.620Z,5.91
2023-05-16T03:10:40.881Z,5.90
2023-05-16T03:13:09.136Z,5.86
2023-05-16T03:15:37.671Z,5.86
2023-05-16T03:18:06.396Z,5.74
2023-05-16T03:20:34.817Z,5.70
2023-05-16T03:23:03.089Z,5.67
2023-05-16T03:25:32.887Z,5.66
2023-05-16T03:28:01.861Z,5.66
2023-05-16T03:30:30.207Z,5.57
2023-05-16T03:32:59.000Z,5.56
2023-05-16T03:35:27.555Z,5.62
2023-05-16T03:37:56.174Z,5.66
2023-05-16T03:40:24.982Z,5.70
2023-05-16T03:42:54.810Z,5.69
2023-05-16T03:45:23.146Z,5.86
2023-05-16T03:47:51.529Z,5.90
2023-05-16T03:50:20.204Z,5.82
2023-05-16T03:52:48.545Z,5.74
2023-05-16T03:55:16.897Z,5.80
2023-05-16T03:57:45.121Z,5.75
2023-05-16T04:00:15.860Z,5.78
2023-05-16T04:02:44.901Z,5.72
2023-05-16T04:05:14.287Z,5.79
2023-05-16T04:07:42.663Z,5.80
2023-05-16T04:10:12.078Z,5.81
2023-05-16T04:12:40.405Z,5.75
2023-05-16T04:15:09.474Z,5.79
2023-05-16T04:17:39.067Z,5.74
2023-05-16T04:20:08.320Z,5.83
2023-05-16T04:22:36.674Z,5.86
2023-05-16T04:25:05.103Z,5.80
2023-05-16T04:27:33.714Z,5.81
2023-05-16T04:30:02.156Z,5.95
2023-05-16T04:32:30.627Z,6.06
2023-05-16T04:35:00.536Z,5.97
2023-05-16T04:37:28.826Z,6.02
2023-05-16T04:39:57.057Z,6.06
2023-05-16T04:42:25.627Z,6.11
2023-05-16T04:44:54.322Z,6.13
2023-05-16T04:47:22.620Z,6.20
2023-05-16T04:49:51.220Z,6.46
2023-05-16T04:52:21.244Z,6.74
2023-05-16T04:54:52.343Z,6.85
2023-05-16T04:57:20.633Z,6.94
2023-05-16T04:59:48.915Z,7.00
2023-05-16T05:02:17.248Z,7.10
2023-05-16T05:04:45.583Z,7.16
2023-05-16T05:07:14.631Z,7.30
2023-05-16T05:09:45.154Z,7.38
2023-05-16T05:12:13.508Z,7.38
2023-05-16T05:14:41.780Z,7.42
2023-05-16T05:17:10.328Z,7.50
2023-05-16T05:19:38.761Z,7.50
2023-05-16T05:22:07.228Z,7.60
2023-05-16T05:24:35.927Z,7.69
2023-05-16T05:27:05.842Z,7.77
2023-05-16T05:29:34.205Z,7.76
2023-05-16T05:32:02.620Z,7.77
2023-05-16T05:34:31.130Z,7.86
2023-05-16T05:36:59.371Z,7.96
2023-05-16T05:39:27.681Z,8.06
2023-05-16T05:41:56.034Z,8.14
2023-05-16T05:44:25.923Z,8.19
2023-05-16T05:46:54.192Z,8.31
2023-05-16T05:49:23.414Z,8.38
2023-05-16T05:51:52.363Z,8.52
2023-05-16T05:54:20.745Z,8.59
2023-05-16T05:56:49.104Z,8.67
2023-05-16T05:59:17.484Z,8.95
2023-05-16T06:01:47.255Z,9.11
2023-05-16T06:04:15.613Z,9.23
2023-05-16T06:06:43.883Z,9.39
2023-05-16T06:09:12.753Z,9.45
2023-05-16T06:11:41.242Z,9.53
2023-05-16T06:14:09.714Z,9.65
2023-05-16T06:16:39.511Z,9.92
2023-05-16T06:19:09.566Z,10.08
2023-05-16T06:21:38.031Z,10.36
2023-05-16T06:24:06.573Z,10.35
2023-05-16T06:26:34.991Z,9.99
2023-05-16T06:29:03.393Z,9.89
2023-05-16T06:31:35.054Z,9.68
2023-05-16T06:34:03.422Z,9.85
2023-05-16T06:36:33.219Z,9.76
2023-05-16T06:39:01.651Z,9.69
2023-05-16T06:41:29.975Z,9.59
2023-05-16T06:43:58.499Z,9.53
2023-05-16T06:46:27.335Z,9.46
2023-05-16T06:48:55.804Z,9.41
2023-05-16T06:51:24.508Z,9.41
2023-05-16T06:53:54.255Z,9.44
2023-05-16T06:56:22.896Z,9.50
2023-05-16T06:58:51.420Z,9.74
2023-05-16T07:01:19.772Z,10.00
2023-05-16T07:03:48.553Z,10.39
2023-05-16T07:06:16.922Z,10.63
2023-05-16T07:08:45.319Z,10.83
2023-05-16T07:11:15.132Z,11.07
2023-05-16T07:13:46.009Z,11.43
2023-05-16T07:16:14.686Z,11.55
2023-05-16T07:18:43.084Z,11.78
2023-05-16T07:21:11.578Z,11.67
2023-05-16T07:23:39.921Z,11.88
2023-05-16T07:26:08.245Z,11.96
2023-05-16T07:28:37.961Z,12.01
2023-05-16T07:31:06.906Z,11.78
2023-05-16T07:33:35.185Z,11.78
2023-05-16T07:36:15.341Z,12.22
2023-05-16T07:38:44.310Z,11.99
2023-05-16T07:41:12.760Z,11.90
2023-05-16T07:43:42.572Z,12.10
2023-05-16T07:46:12.777Z,12.12
2023-05-16T07:48:41.339Z,11.98
2023-05-16T07:51:09.837Z,12.30
2023-05-16T07:53:38.203Z,12.25
2023-05-16T07:56:07.419Z,12.42
2023-05-16T07:58:35.826Z,12.78
2023-05-16T08:01:05.824Z,12.46
2023-05-16T08:03:34.493Z,12.17
2023-05-16T08:06:03.032Z,12.47
2023-05-16T08:08:31.528Z,12.36
2023-05-16T08:10:59.953Z,12.05
2023-05-16T08:13:28.266Z,11.78
2023-05-16T08:15:56.651Z,11.49
2023-05-16T08:18:26.409Z,11.30
2023-05-16T08:20:54.809Z,11.54
2023-05-16T08:23:23.108Z,11.44
2023-05-16T08:25:51.462Z,11.19
2023-05-16T08:28:19.886Z,11.27
2023-05-16T08:30:48.326Z,11.19
2023-05-16T08:33:16.938Z,11.29
2023-05-16T08:35:48.927Z,11.48
2023-05-16T08:38:17.385Z,12.18
2023-05-16T08:40:45.781Z,12.81
2023-05-16T08:43:14.240Z,12.90
2023-05-16T08:45:42.946Z,12.93
2023-05-16T08:48:12.166Z,12.53
2023-05-16T08:50:42.832Z,12.19
2023-05-16T08:53:15.882Z,12.26
2023-05-16T08:55:46.957Z,12.29
2023-05-16T08:58:15.996Z,11.92
2023-05-16T09:00:45.128Z,11.99
2023-05-16T09:03:13.960Z,11.87
2023-05-16T09:05:42.813Z,12.36
2023-05-16T09:08:13.162Z,12.18
2023-05-16T09:10:41.560Z,12.61
2023-05-16T09:13:09.936Z,12.77
2023-05-16T09:15:38.207Z,12.97
2023-05-16T09:18:07.369Z,13.38
2023-05-16T09:20:35.801Z,14.22
2023-05-16T09:23:04.144Z,13.94
2023-05-16T09:25:34.189Z,13.20
2023-05-16T09:28:03.804Z,13.50
2023-05-16T09:30:34.092Z,13.73
2023-05-16T09:33:02.948Z,13.05
2023-05-16T09:38:04.095Z,13.73
2023-05-16T09:40:33.913Z,14.14
2023-05-16T09:43:06.760Z,14.64
2023-05-16T09:45:36.381Z,13.71
2023-05-16T09:48:06.979Z,13.00
2023-05-16T09:50:35.795Z,13.06
2023-05-16T09:53:04.403Z,13.74
2023-05-16T09:55:34.653Z,12.93
2023-05-16T09:58:03.015Z,13.27
2023-05-16T10:00:32.786Z,13.97
2023-05-16T10:03:05.141Z,14.43
2023-05-16T10:05:37.888Z,14.59
2023-05-16T10:08:07.258Z,14.94
2023-05-16T10:10:39.388Z,14.41
2023-05-16T10:13:09.843Z,14.65
2023-05-16T10:15:39.422Z,14.94
2023-05-16T10:18:12.089Z,14.73
2023-05-16T10:20:43.858Z,14.29
2023-05-16T10:23:17.601Z,14.51
2023-05-16T10:25:49.149Z,14.11
2023-05-16T10:28:18.360Z,14.08
2023-05-16T10:30:47.847Z,14.30
2023-05-16T10:33:17.617Z,14.25
2023-05-16T10:35:46.835Z,14.54
2023-05-16T10:38:18.549Z,13.83
2023-05-16T10:40:49.242Z,13.86
2023-05-16T10:43:26.716Z,14.40
2023-05-16T10:45:59.133Z,14.10
2023-05-16T10:48:32.010Z,14.92
2023-05-16T10:51:00.608Z,14.64
2023-05-16T10:53:33.642Z,14.71
2023-05-16T10:56:12.603Z,15.07
2023-05-16T10:58:46.063Z,15.28
2023-05-16T11:01:22.897Z,14.42
2023-05-16T11:04:10.361Z,14.49
2023-05-16T11:07:02.937Z,14.19
2023-05-16T11:09:31.347Z,14.80
2023-05-16T11:12:04.693Z,15.46
2023-05-16T11:14:42.830Z,15.36
2023-05-16T11:17:13.522Z,15.39
2023-05-16T11:19:44.723Z,15.31
2023-05-16T11:22:25.068Z,14.77
2023-05-16T11:24:56.279Z,14.33
2023-05-16T11:27:28.138Z,14.88
2023-05-16T11:30:02.074Z,14.72
2023-05-16T11:32:32.480Z,15.25
2023-05-16T11:35:01.279Z,15.57
2023-05-16T11:37:29.801Z,15.68
2023-05-16T11:40:01.933Z,16.12
2023-05-16T11:42:34.134Z,15.62
2023-05-16T11:45:09.859Z,15.49
2023-05-16T11:47:39.487Z,15.69
2023-05-16T11:50:10.112Z,15.01
2023-05-16T11:52:39.138Z,15.07
2023-05-16T11:55:11.043Z,15.67
2023-05-16T11:57:42.085Z,16.52
2023-05-16T12:00:17.853Z,15.66
2023-05-16T12:02:47.789Z,15.69
2023-05-16T12:05:20.243Z,16.04
2023-05-16T12:07:49.252Z,15.91
2023-05-16T12:10:18.073Z,15.95
2023-05-16T12:12:49.318Z,15.83
2023-05-16T12:15:17.844Z,15.95
2023-05-16T12:17:47.982Z,16.35
2023-05-16T12:20:17.271Z,15.40
2023-05-16T12:22:46.457Z,15.69
2023-05-16T12:25:28.454Z,14.79
2023-05-16T12:27:59.846Z,15.31
2023-05-16T12:30:30.545Z,16.31
2023-05-16T12:32:59.867Z,16.58
2023-05-16T12:35:33.342Z,16.16
2023-05-16T12:38:04.874Z,15.69
2023-05-16T12:40:33.372Z,15.45
2023-05-16T12:43:03.527Z,14.88
2023-05-16T12:45:33.953Z,15.01
2023-05-16T12:48:07.935Z,15.15
2023-05-16T12:50:36.844Z,15.63
2023-05-16T12:53:05.261Z,16.46
2023-05-16T12:55:34.135Z,16.33
2023-05-16T12:58:04.647Z,15.21
2023-05-16T13:00:33.271Z,15.39
2023-05-16T13:03:01.776Z,15.43
2023-05-16T13:05:30.323Z,16.26
2023-05-16T13:07:58.791Z,15.82
2023-05-16T13:10:27.396Z,15.08
2023-05-16T13:12:58.504Z,14.74
2023-05-16T13:15:28.529Z,15.53
2023-05-16T13:17:57.649Z,14.99
2023-05-16T13:20:26.037Z,15.60
2023-05-16T13:22:54.352Z,15.07
2023-05-16T13:25:22.940Z,16.10
2023-05-16T13:27:51.309Z,16.39
2023-05-16T13:30:19.897Z,16.39
2023-05-16T13:32:49.802Z,16.18
2023-05-16T13:35:18.440Z,16.63
2023-05-16T13:37:46.974Z,17.45
2023-05-16T13:40:15.362Z,17.98
2023-05-16T13:42:43.988Z,17.13
2023-05-16T13:45:12.695Z,17.72
2023-05-16T13:47:41.661Z,17.64
2023-05-16T13:50:12.299Z,18.28
2023-05-16T13:52:40.834Z,15.97
2023-05-16T13:55:09.734Z,15.67
2023-05-16T13:57:38.351Z,15.41
2023-05-16T14:02:44.517Z,15.62
2023-05-16T14:05:14.328Z,16.10
2023-05-16T14:07:43.745Z,16.32
2023-05-16T14:10:13.936Z,17.18
2023-05-16T14:12:42.314Z,17.25
2023-05-16T14:15:11.719Z,18.05
2023-05-16T14:17:40.244Z,18.28
2023-05-16T14:20:10.840Z,18.74
2023-05-16T14:22:41.803Z,19.99
2023-05-16T14:25:10.602Z,20.42
2023-05-16T14:27:38.904Z,18.09
2023-05-16T14:30:09.597Z,16.91
2023-05-16T14:32:38.025Z,17.96
2023-05-16T14:35:07.120Z,17.41
2023-05-16T14:37:35.387Z,18.61
2023-05-16T14:40:06.414Z,16.78
2023-05-16T14:42:34.799Z,16.34
2023-05-16T14:45:03.458Z,16.52
2023-05-16T14:47:31.907Z,16.18
2023-05-16T14:50:01.293Z,14.94
2023-05-16T14:52:29.832Z,15.06
2023-05-16T14:54:58.137Z,15.41
2023-05-16T14:57:28.003Z,17.00
2023-05-16T14:59:56.626Z,17.91
2023-05-16T15:02:27.012Z,17.79
2023-05-16T15:04:55.812Z,18.97
2023-05-16T15:07:24.647Z,18.69
2023-05-16T15:09:53.027Z,19.32
2023-05-16T15:12:21.832Z,18.96
2023-05-16T15:14:51.632Z,17.35
2023-05-16T15:17:20.633Z,18.77
2023-05-16T15:19:49.120Z,18.61
2023-05-16T15:22:17.439Z,19.75
2023-05-16T15:24:45.802Z,20.68
2023-05-16T15:27:14.164Z,20.13
2023-05-16T15:29:42.512Z,20.37
2023-05-16T15:32:13.847Z,20.78
2023-05-16T15:34:42.593Z,19.90
2023-05-16T15:37:11.088Z,19.96
2023-05-16T15:39:39.635Z,20.22
2023-05-16T15:42:11.214Z,20.58
2023-05-16T15:44:40.306Z,21.10
2023-05-16T15:47:09.218Z,21.01
2023-05-16T15:49:39.132Z,20.79
2023-05-16T15:52:07.721Z,18.85
2023-05-16T15:54:36.929Z,18.12
2023-05-16T15:57:05.731Z,19.59
2023-05-16T15:59:34.207Z,18.56
2023-05-16T16:02:05.394Z,19.27
2023-05-16T16:04:33.800Z,19.47
2023-05-16T16:07:03.702Z,19.91
2023-05-16T16:09:32.150Z,20.01
2023-05-16T16:12:00.627Z,21.45
2023-05-16T16:14:29.174Z,20.59
2023-05-16T16:16:57.674Z,19.71
2023-05-16T16:19:26.702Z,19.58
2023-05-16T16:21:55.193Z,20.89
2023-05-16T16:24:25.215Z,18.61
2023-05-16T16:29:22.036Z,19.33
2023-05-16T16:31:50.539Z,19.76
2023-05-16T16:34:21.581Z,20.41
2023-05-16T16:36:51.553Z,18.78
2023-05-16T16:39:19.959Z,16.57
2023-05-16T16:41:49.901Z,16.22
2023-05-16T16:44:18.539Z,17.55
2023-05-16T16:46:46.913Z,18.36
2023-05-16T16:49:15.385Z,19.72
2023-05-16T16:51:43.802Z,19.02
2023-05-16T16:54:12.064Z,19.22
2023-05-16T16:56:40.517Z,18.81
2023-05-16T16:59:11.534Z,19.97
2023-05-16T17:01:39.923Z,19.62
2023-05-16T17:04:08.654Z,20.59
2023-05-16T17:06:37.229Z,18.81
2023-05-16T17:09:07.065Z,19.79
2023-05-16T17:11:37.468Z,19.43
2023-05-16T17:14:06.331Z,17.99
2023-05-16T17:16:36.392Z,18.02
2023-05-16T17:19:05.556Z,16.89
2023-05-16T17:21:34.822Z,17.54
2023-05-16T17:24:03.867Z,16.79
2023-05-16T17:26:32.275Z,15.74
2023-05-16T17:29:01.555Z,14.95
2023-05-16T17:31:30.083Z,14.82
2023-05-16T17:33:59.950Z,14.47
2023-05-16T17:36:28.468Z,14.49
2023-05-16T17:38:56.875Z,14.34
2023-05-16T17:41:25.273Z,14.51
2023-05-16T17:43:53.701Z,14.19
2023-05-16T17:46:23.615Z,14.22
2023-05-16T17:48:51.924Z,13.98
2023-05-16T17:51:21.762Z,13.95
2023-05-16T17:53:50.686Z,13.76
2023-05-16T17:56:19.666Z,13.65
2023-05-16T17:58:48.118Z,13.82
2023-05-16T18:01:16.717Z,13.66
2023-05-16T18:03:45.081Z,13.56
2023-05-16T18:06:13.825Z,13.41
2023-05-16T18:08:43.756Z,13.63
2023-05-16T18:11:12.235Z,13.53
2023-05-16T18:13:40.680Z,13.21
2023-05-16T18:16:10.145Z,13.33
2023-05-16T18:18:40.141Z,13.02
2023-05-16T18:21:08.711Z,12.85
2023-05-16T18:23:37.410Z,12.76
2023-05-16T18:26:07.154Z,12.75
2023-05-16T18:28:35.635Z,12.87
2023-05-16T18:31:07.191Z,12.99
2023-05-16T18:33:35.718Z,12.88
2023-05-16T18:36:04.730Z,12.89
2023-05-16T18:38:33.845Z,12.93
2023-05-16T18:41:02.613Z,12.84
2023-05-16T18:43:35.318Z,12.77
2023-05-16T18:46:04.116Z,12.61
2023-05-16T18:48:34.676Z,12.80
2023-05-16T18:51:04.759Z,12.75
2023-05-16T18:53:33.189Z,12.75
2023-05-16T18:56:01.586Z,12.67
2023-05-16T18:58:29.912Z,12.53
2023-05-16T19:00:59.732Z,12.53
2023-05-16T19:03:28.272Z,12.34
2023-05-16T19:05:57.413Z,12.41
2023-05-16T19:08:31.316Z,12.26
2023-05-16T19:11:05.531Z,12.35
2023-05-16T19:13:34.977Z,12.25
2023-05-16T19:16:05.015Z,12.20
2023-05-16T19:18:35.128Z,12.14
2023-05-16T19:21:03.827Z,12.18
2023-05-16T19:23:32.356Z,12.05
2023-05-16T19:26:01.258Z,12.01
2023-05-16T19:28:29.730Z,11.94
2023-05-16T19:30:58.973Z,11.82
2023-05-16T19:33:28.713Z,11.83
2023-05-16T19:35:58.504Z,11.78
2023-05-16T19:38:28.275Z,11.66
2023-05-16T19:40:56.660Z,11.44
2023-05-16T19:43:25.026Z,11.52
2023-05-16T19:45:53.690Z,11.49
2023-05-16T19:48:22.272Z,11.45
2023-05-16T19:50:52.156Z,11.51
2023-05-16T19:53:22.331Z,11.41
2023-05-16T19:55:52.597Z,11.45
2023-05-16T19:58:21.145Z,11.40
2023-05-16T20:00:50.960Z,11.38
2023-05-16T20:03:19.365Z,11.22
2023-05-16T20:05:47.987Z,11.05
2023-05-16T20:08:17.689Z,11.20
2023-05-16T20:10:46.182Z,11.15
2023-05-16T20:13:18.411Z,10.99
2023-05-16T20:15:46.785Z,11.01
2023-05-16T20:18:15.214Z,11.01
2023-05-16T20:20:44.783Z,10.88
2023-05-16T20:23:13.113Z,10.97
2023-05-16T20:25:42.852Z,10.77
2023-05-16T20:28:14.436Z,10.90
2023-05-16T20:30:42.758Z,10.89
2023-05-16T20:33:11.094Z,10.82
2023-05-16T20:35:39.504Z,10.72
2023-05-16T20:38:08.019Z,10.66
2023-05-16T20:40:36.447Z,10.64
2023-05-16T20:43:06.984Z,10.64
2023-05-16T20:45:35.403Z,10.44
2023-05-16T20:48:03.778Z,10.41
2023-05-16T20:50:32.196Z,10.37
2023-05-16T20:53:00.535Z,10.51
2023-05-16T20:55:29.144Z,10.35
2023-05-16T20:57:57.615Z,10.29
2023-05-16T21:00:27.375Z,10.34
2023-05-16T21:02:55.835Z,10.23
2023-05-16T21:05:25.940Z,10.33
2023-05-16T21:07:54.556Z,10.24
2023-05-16T21:10:22.969Z,10.28
2023-05-16T21:12:51.462Z,10.28
2023-05-16T21:15:25.178Z,10.14
2023-05-16T21:17:55.079Z,10.19
2023-05-16T21:20:23.543Z,10.08
2023-05-16T21:22:51.957Z,10.10
2023-05-16T21:25:20.354Z,10.19
2023-05-16T21:27:48.725Z,10.03
2023-05-16T21:30:19.862Z,9.88
2023-05-16T21:32:48.204Z,9.88
2023-05-16T21:35:18.028Z,9.75
2023-05-16T21:37:46.396Z,9.92
2023-05-16T21:40:19.203Z,9.81
2023-05-16T21:42:47.578Z,9.82
2023-05-16T21:45:16.622Z,9.84
2023-05-16T21:47:45.442Z,9.71
2023-05-16T21:50:14.255Z,9.77
2023-05-16T21:52:44.087Z,9.88
2023-05-16T21:55:12.544Z,9.76
2023-05-16T21:57:41.018Z,9.49
2023-05-16T22:00:10.314Z,9.33
2023-05-16T22:02:38.664Z,9.27
2023-05-16T22:05:08.165Z,9.49
2023-05-16T22:07:37.009Z,9.45
2023-05-16T22:10:07.849Z,9.21
2023-05-16T22:12:36.204Z,9.18
2023-05-16T22:15:05.340Z,9.14
2023-05-16T22:17:33.837Z,9.03
2023-05-16T22:20:02.549Z,9.21
2023-05-16T22:22:30.957Z,9.24
2023-05-16T22:24:59.261Z,9.03
2023-05-16T22:27:28.981Z,8.90
2023-05-16T22:29:57.266Z,8.88
2023-05-16T22:32:25.655Z,8.87
2023-05-16T22:34:54.047Z,8.92
2023-05-16T22:37:22.352Z,8.77
2023-05-16T22:39:50.669Z,8.76
2023-05-16T22:42:18.957Z,8.72
2023-05-16T22:44:48.816Z,8.76
2023-05-16T22:47:17.102Z,8.65
2023-05-16T22:49:45.358Z,8.60
2023-05-16T22:52:13.699Z,8.50
2023-05-16T22:54:42.774Z,8.50
2023-05-16T22:57:11.160Z,8.48
2023-05-16T22:59:39.472Z,8.43
2023-05-16T23:02:09.228Z,8.38
2023-05-16T23:04:37.550Z,8.45
2023-05-16T23:07:06.270Z,8.29
2023-05-16T23:09:34.498Z,8.19
2023-05-16T23:12:02.814Z,8.21
2023-05-16T23:14:31.127Z,8.21
2023-05-16T23:16:59.610Z,8.20
2023-05-16T23:19:29.908Z,8.19
2023-05-16T23:21:58.385Z,8.23
2023-05-16T23:24:26.807Z,8.30
2023-05-16T23:26:55.153Z,8.14
2023-05-16T23:29:23.467Z,8.07
2023-05-16T23:31:52.095Z,8.04
2023-05-16T23:34:20.442Z,7.94
2023-05-16T23:36:50.247Z,7.89
2023-05-16T23:39:18.632Z,7.96
2023-05-16T23:41:47.000Z,7.92
2023-05-16T23:44:15.359Z,7.84
2023-05-16T23:46:43.736Z,7.82
2023-05-16T23:49:12.032Z,7.81
2023-05-16T23:51:55.877Z,7.81
2023-05-16T23:54:27.032Z,7.82
2023-05-16T23:56:55.447Z,7.73
2023-05-16T23:59:23.699Z,7.77
